sensor_id;sensor_type;location;lat;lon;timestamp;P1;durP1;ratioP1;P2;durP2;ratioP2
46216;SDS011;47258;59.424;13.482;2023-07-20T00:01:35;4.60;;;1.77;;
46216;SDS011;47258;59.424;13.482;2023-07-20T00:04:04;8.25;;;1.90;;
46216;SDS011;47258;59.424;13.482;2023-07-20T00:06:31;11.30;;;2.60;;
46216;SDS011;47258;59.424;13.482;2023-07-20T00:08:58;12.40;;;2.35;;
46216;SDS011;47258;59.424;13.482;2023-07-20T00:11:26;8.02;;;2.47;;
46216;SDS011;47258;59.424;13.482;2023-07-20T00:13:55;12.00;;;1.98;;
46216;SDS011;47258;59.424;13.482;2023-07-20T00:16:22;6.45;;;1.70;;
46216;SDS011;47258;59.424;13.482;2023-07-20T00:18:49;8.32;;;2.30;;
46216;SDS011;47258;59.424;13.482;2023-07-20T00:21:17;6.55;;;2.15;;
46216;SDS011;47258;59.424;13.482;2023-07-20T00:23:45;13.45;;;3.22;;
46216;SDS011;47258;59.424;13.482;2023-07-20T00:26:12;6.50;;;1.85;;
46216;SDS011;47258;59.424;13.482;2023-07-20T00:28:39;5.65;;;2.00;;
46216;SDS011;47258;59.424;13.482;2023-07-20T00:31:08;12.40;;;3.38;;
46216;SDS011;47258;59.424;13.482;2023-07-20T00:33:35;8.63;;;2.35;;
46216;SDS011;47258;59.424;13.482;2023-07-20T00:36:02;11.93;;;3.22;;
46216;SDS011;47258;59.424;13.482;2023-07-20T00:38:30;12.13;;;2.08;;
46216;SDS011;47258;59.424;13.482;2023-07-20T00:40:57;14.20;;;2.65;;
46216;SDS011;47258;59.424;13.482;2023-07-20T00:43:24;6.07;;;2.42;;
46216;SDS011;47258;59.424;13.482;2023-07-20T00:45:52;9.75;;;2.22;;
46216;SDS011;47258;59.424;13.482;2023-07-20T00:48:20;12.80;;;2.90;;
46216;SDS011;47258;59.424;13.482;2023-07-20T00:50:48;8.77;;;2.83;;
46216;SDS011;47258;59.424;13.482;2023-07-20T00:53:15;5.32;;;1.80;;
46216;SDS011;47258;59.424;13.482;2023-07-20T00:55:43;9.23;;;2.42;;
46216;SDS011;47258;59.424;13.482;2023-07-20T00:58:11;8.95;;;3.65;;
46216;SDS011;47258;59.424;13.482;2023-07-20T01:00:38;7.05;;;2.30;;
46216;SDS011;47258;59.424;13.482;2023-07-20T01:03:05;11.48;;;2.58;;
46216;SDS011;47258;59.424;13.482;2023-07-20T01:05:36;4.95;;;2.40;;
46216;SDS011;47258;59.424;13.482;2023-07-20T01:08:07;6.07;;;2.72;;
46216;SDS011;47258;59.424;13.482;2023-07-20T01:10:39;6.28;;;2.42;;
46216;SDS011;47258;59.424;13.482;2023-07-20T01:13:09;12.40;;;3.53;;
46216;SDS011;47258;59.424;13.482;2023-07-20T01:15:37;5.82;;;2.28;;
46216;SDS011;47258;59.424;13.482;2023-07-20T01:18:04;10.77;;;2.50;;
46216;SDS011;47258;59.424;13.482;2023-07-20T01:20:32;6.57;;;2.25;;
46216;SDS011;47258;59.424;13.482;2023-07-20T01:23:12;9.88;;;2.47;;
46216;SDS011;47258;59.424;13.482;2023-07-20T01:26:02;8.35;;;2.83;;
46216;SDS011;47258;59.424;13.482;2023-07-20T01:28:37;8.43;;;2.58;;
46216;SDS011;47258;59.424;13.482;2023-07-20T01:31:17;5.05;;;2.40;;
46216;SDS011;47258;59.424;13.482;2023-07-20T01:33:44;11.13;;;3.25;;
46216;SDS011;47258;59.424;13.482;2023-07-20T01:36:12;10.23;;;2.83;;
46216;SDS011;47258;59.424;13.482;2023-07-20T01:38:40;7.65;;;2.97;;
46216;SDS011;47258;59.424;13.482;2023-07-20T01:41:09;7.38;;;3.50;;
46216;SDS011;47258;59.424;13.482;2023-07-20T01:43:37;10.60;;;2.92;;
46216;SDS011;47258;59.424;13.482;2023-07-20T01:46:05;6.53;;;2.50;;
46216;SDS011;47258;59.424;13.482;2023-07-20T01:48:33;11.40;;;3.00;;
46216;SDS011;47258;59.424;13.482;2023-07-20T01:51:01;6.53;;;2.83;;
46216;SDS011;47258;59.424;13.482;2023-07-20T01:53:28;7.07;;;3.35;;
46216;SDS011;47258;59.424;13.482;2023-07-20T01:55:56;7.68;;;2.90;;
46216;SDS011;47258;59.424;13.482;2023-07-20T01:58:23;11.93;;;3.75;;
46216;SDS011;47258;59.424;13.482;2023-07-20T02:00:50;12.45;;;3.50;;
46216;SDS011;47258;59.424;13.482;2023-07-20T02:03:18;8.68;;;3.53;;
46216;SDS011;47258;59.424;13.482;2023-07-20T02:05:48;5.20;;;3.17;;
46216;SDS011;47258;59.424;13.482;2023-07-20T02:08:15;7.15;;;2.70;;
46216;SDS011;47258;59.424;13.482;2023-07-20T02:10:44;4.55;;;2.85;;
46216;SDS011;47258;59.424;13.482;2023-07-20T02:13:12;8.32;;;3.63;;
46216;SDS011;47258;59.424;13.482;2023-07-20T02:15:39;12.30;;;3.03;;
46216;SDS011;47258;59.424;13.482;2023-07-20T02:18:07;4.70;;;3.40;;
46216;SDS011;47258;59.424;13.482;2023-07-20T02:20:35;10.68;;;3.20;;
46216;SDS011;47258;59.424;13.482;2023-07-20T02:23:03;9.60;;;3.15;;
46216;SDS011;47258;59.424;13.482;2023-07-20T02:25:31;7.47;;;3.38;;
46216;SDS011;47258;59.424;13.482;2023-07-20T02:27:58;15.02;;;2.88;;
46216;SDS011;47258;59.424;13.482;2023-07-20T02:30:25;8.65;;;2.92;;
46216;SDS011;47258;59.424;13.482;2023-07-20T02:32:53;9.07;;;2.47;;
46216;SDS011;47258;59.424;13.482;2023-07-20T02:35:23;8.77;;;2.60;;
46216;SDS011;47258;59.424;13.482;2023-07-20T02:37:51;6.15;;;2.40;;
46216;SDS011;47258;59.424;13.482;2023-07-20T02:40:20;9.02;;;2.47;;
46216;SDS011;47258;59.424;13.482;2023-07-20T02:42:48;8.40;;;3.00;;
46216;SDS011;47258;59.424;13.482;2023-07-20T02:45:15;6.72;;;2.85;;
46216;SDS011;47258;59.424;13.482;2023-07-20T02:47:44;5.45;;;2.60;;
46216;SDS011;47258;59.424;13.482;2023-07-20T02:50:11;4.25;;;2.67;;
46216;SDS011;47258;59.424;13.482;2023-07-20T02:52:39;8.82;;;2.80;;
46216;SDS011;47258;59.424;13.482;2023-07-20T02:55:07;6.47;;;2.33;;
46216;SDS011;47258;59.424;13.482;2023-07-20T02:57:35;5.35;;;2.85;;
46216;SDS011;47258;59.424;13.482;2023-07-20T03:00:03;5.72;;;2.05;;
46216;SDS011;47258;59.424;13.482;2023-07-20T03:02:31;18.40;;;3.53;;
46216;SDS011;47258;59.424;13.482;2023-07-20T03:04:59;7.05;;;2.70;;
46216;SDS011;47258;59.424;13.482;2023-07-20T03:07:27;7.75;;;3.20;;
46216;SDS011;47258;59.424;13.482;2023-07-20T03:09:54;9.82;;;3.53;;
46216;SDS011;47258;59.424;13.482;2023-07-20T03:12:22;8.48;;;3.20;;
46216;SDS011;47258;59.424;13.482;2023-07-20T03:14:51;6.45;;;3.25;;
46216;SDS011;47258;59.424;13.482;2023-07-20T03:17:19;4.95;;;2.75;;
46216;SDS011;47258;59.424;13.482;2023-07-20T03:19:46;9.98;;;3.42;;
46216;SDS011;47258;59.424;13.482;2023-07-20T03:22:14;6.60;;;2.35;;
46216;SDS011;47258;59.424;13.482;2023-07-20T03:24:41;5.68;;;3.08;;
46216;SDS011;47258;59.424;13.482;2023-07-20T03:27:08;7.90;;;2.55;;
46216;SDS011;47258;59.424;13.482;2023-07-20T03:29:36;4.03;;;2.75;;
46216;SDS011;47258;59.424;13.482;2023-07-20T03:32:05;7.00;;;2.63;;
46216;SDS011;47258;59.424;13.482;2023-07-20T03:34:32;7.18;;;2.88;;
46216;SDS011;47258;59.424;13.482;2023-07-20T03:36:59;7.53;;;2.67;;
46216;SDS011;47258;59.424;13.482;2023-07-20T03:41:57;4.50;;;2.75;;
46216;SDS011;47258;59.424;13.482;2023-07-20T03:44:24;7.20;;;3.20;;
46216;SDS011;47258;59.424;13.482;2023-07-20T03:46:52;4.55;;;3.05;;
46216;SDS011;47258;59.424;13.482;2023-07-20T03:49:20;9.35;;;3.40;;
46216;SDS011;47258;59.424;13.482;2023-07-20T03:51:48;5.95;;;2.92;;
46216;SDS011;47258;59.424;13.482;2023-07-20T03:54:15;6.88;;;3.05;;
46216;SDS011;47258;59.424;13.482;2023-07-20T03:56:44;6.22;;;2.65;;
46216;SDS011;47258;59.424;13.482;2023-07-20T03:59:11;5.95;;;1.98;;
46216;SDS011;47258;59.424;13.482;2023-07-20T04:01:39;7.68;;;3.00;;
46216;SDS011;47258;59.424;13.482;2023-07-20T04:04:07;10.80;;;3.22;;
46216;SDS011;47258;59.424;13.482;2023-07-20T04:06:35;7.88;;;3.00;;
46216;SDS011;47258;59.424;13.482;2023-07-20T04:09:03;8.45;;;2.58;;
46216;SDS011;47258;59.424;13.482;2023-07-20T04:11:31;4.50;;;2.47;;
46216;SDS011;47258;59.424;13.482;2023-07-20T04:13:58;5.28;;;2.88;;
46216;SDS011;47258;59.424;13.482;2023-07-20T04:16:25;5.45;;;2.50;;
46216;SDS011;47258;59.424;13.482;2023-07-20T04:18:54;9.45;;;2.53;;
46216;SDS011;47258;59.424;13.482;2023-07-20T04:21:22;14.13;;;3.13;;
46216;SDS011;47258;59.424;13.482;2023-07-20T04:23:51;6.38;;;3.72;;
46216;SDS011;47258;59.424;13.482;2023-07-20T04:26:18;8.68;;;3.45;;
46216;SDS011;47258;59.424;13.482;2023-07-20T04:28:45;6.47;;;3.95;;
46216;SDS011;47258;59.424;13.482;2023-07-20T04:31:14;6.50;;;3.58;;
46216;SDS011;47258;59.424;13.482;2023-07-20T04:33:41;6.72;;;3.42;;
46216;SDS011;47258;59.424;13.482;2023-07-20T04:36:09;4.68;;;3.83;;
46216;SDS011;47258;59.424;13.482;2023-07-20T04:38:36;6.30;;;3.65;;
46216;SDS011;47258;59.424;13.482;2023-07-20T04:41:05;13.30;;;2.58;;
46216;SDS011;47258;59.424;13.482;2023-07-20T04:43:32;4.20;;;2.88;;
46216;SDS011;47258;59.424;13.482;2023-07-20T04:45:59;5.28;;;3.00;;
46216;SDS011;47258;59.424;13.482;2023-07-20T04:48:26;4.38;;;2.80;;
46216;SDS011;47258;59.424;13.482;2023-07-20T04:50:54;6.10;;;2.60;;
46216;SDS011;47258;59.424;13.482;2023-07-20T04:53:21;4.82;;;2.92;;
46216;SDS011;47258;59.424;13.482;2023-07-20T04:55:49;5.85;;;3.00;;
46216;SDS011;47258;59.424;13.482;2023-07-20T04:58:18;5.88;;;3.00;;
46216;SDS011;47258;59.424;13.482;2023-07-20T05:00:46;6.70;;;2.85;;
46216;SDS011;47258;59.424;13.482;2023-07-20T05:03:13;4.97;;;2.67;;
46216;SDS011;47258;59.424;13.482;2023-07-20T05:05:40;3.72;;;2.17;;
46216;SDS011;47258;59.424;13.482;2023-07-20T05:08:08;3.55;;;2.05;;
46216;SDS011;47258;59.424;13.482;2023-07-20T05:10:35;1.88;;;1.58;;
46216;SDS011;47258;59.424;13.482;2023-07-20T05:13:02;3.22;;;2.05;;
46216;SDS011;47258;59.424;13.482;2023-07-20T05:15:32;4.53;;;1.65;;
46216;SDS011;47258;59.424;13.482;2023-07-20T05:17:59;3.80;;;2.08;;
46216;SDS011;47258;59.424;13.482;2023-07-20T05:20:27;5.68;;;2.38;;
46216;SDS011;47258;59.424;13.482;2023-07-20T05:22:54;4.45;;;1.48;;
46216;SDS011;47258;59.424;13.482;2023-07-20T05:25:21;5.72;;;1.48;;
46216;SDS011;47258;59.424;13.482;2023-07-20T05:27:49;4.05;;;1.60;;
46216;SDS011;47258;59.424;13.482;2023-07-20T05:30:16;1.95;;;1.38;;
46216;SDS011;47258;59.424;13.482;2023-07-20T05:32:45;2.53;;;1.05;;
46216;SDS011;47258;59.424;13.482;2023-07-20T05:35:16;1.25;;;1.15;;
46216;SDS011;47258;59.424;13.482;2023-07-20T05:37:43;0.80;;;0.70;;
46216;SDS011;47258;59.424;13.482;2023-07-20T05:40:11;1.92;;;1.38;;
46216;SDS011;47258;59.424;13.482;2023-07-20T05:42:39;1.40;;;1.00;;
46216;SDS011;47258;59.424;13.482;2023-07-20T05:45:07;1.48;;;1.00;;
46216;SDS011;47258;59.424;13.482;2023-07-20T05:47:34;0.90;;;0.88;;
46216;SDS011;47258;59.424;13.482;2023-07-20T05:50:03;3.08;;;0.93;;
46216;SDS011;47258;59.424;13.482;2023-07-20T05:52:31;2.13;;;1.00;;
46216;SDS011;47258;59.424;13.482;2023-07-20T05:54:58;1.15;;;0.60;;
46216;SDS011;47258;59.424;13.482;2023-07-20T05:57:25;2.15;;;1.02;;
46216;SDS011;47258;59.424;13.482;2023-07-20T05:59:53;3.83;;;0.60;;
46216;SDS011;47258;59.424;13.482;2023-07-20T06:02:20;1.05;;;0.95;;
46216;SDS011;47258;59.424;13.482;2023-07-20T06:04:47;0.82;;;0.65;;
46216;SDS011;47258;59.424;13.482;2023-07-20T06:07:16;1.58;;;1.00;;
46216;SDS011;47258;59.424;13.482;2023-07-20T06:09:43;1.48;;;0.73;;
46216;SDS011;47258;59.424;13.482;2023-07-20T06:12:11;0.40;;;0.40;;
46216;SDS011;47258;59.424;13.482;2023-07-20T06:14:38;2.25;;;0.68;;
46216;SDS011;47258;59.424;13.482;2023-07-20T06:17:05;1.75;;;0.55;;
46216;SDS011;47258;59.424;13.482;2023-07-20T06:19:33;1.50;;;0.40;;
46216;SDS011;47258;59.424;13.482;2023-07-20T06:22:00;0.80;;;0.80;;
46216;SDS011;47258;59.424;13.482;2023-07-20T06:24:29;0.50;;;0.50;;
46216;SDS011;47258;59.424;13.482;2023-07-20T06:26:56;4.38;;;0.60;;
46216;SDS011;47258;59.424;13.482;2023-07-20T06:29:23;0.95;;;0.88;;
46216;SDS011;47258;59.424;13.482;2023-07-20T06:31:50;2.72;;;1.45;;
46216;SDS011;47258;59.424;13.482;2023-07-20T06:34:18;0.52;;;0.52;;
46216;SDS011;47258;59.424;13.482;2023-07-20T06:36:45;0.50;;;0.50;;
46216;SDS011;47258;59.424;13.482;2023-07-20T06:39:12;0.45;;;0.40;;
46216;SDS011;47258;59.424;13.482;2023-07-20T06:41:41;1.08;;;0.50;;
46216;SDS011;47258;59.424;13.482;2023-07-20T06:44:09;0.63;;;0.63;;
46216;SDS011;47258;59.424;13.482;2023-07-20T06:46:36;0.30;;;0.30;;
46216;SDS011;47258;59.424;13.482;2023-07-20T06:49:05;1.13;;;0.40;;
46216;SDS011;47258;59.424;13.482;2023-07-20T06:51:33;0.40;;;0.40;;
46216;SDS011;47258;59.424;13.482;2023-07-20T06:54:01;0.47;;;0.47;;
46216;SDS011;47258;59.424;13.482;2023-07-20T06:56:29;0.70;;;0.52;;
46216;SDS011;47258;59.424;13.482;2023-07-20T06:58:58;0.50;;;0.50;;
46216;SDS011;47258;59.424;13.482;2023-07-20T07:01:27;1.38;;;0.40;;
46216;SDS011;47258;59.424;13.482;2023-07-20T07:03:55;2.65;;;0.60;;
46216;SDS011;47258;59.424;13.482;2023-07-20T07:06:22;0.90;;;0.80;;
46216;SDS011;47258;59.424;13.482;2023-07-20T07:08:49;1.48;;;0.65;;
46216;SDS011;47258;59.424;13.482;2023-07-20T07:11:17;0.88;;;0.88;;
46216;SDS011;47258;59.424;13.482;2023-07-20T07:13:44;2.75;;;1.10;;
46216;SDS011;47258;59.424;13.482;2023-07-20T07:16:13;2.95;;;0.80;;
46216;SDS011;47258;59.424;13.482;2023-07-20T07:18:43;1.65;;;0.85;;
46216;SDS011;47258;59.424;13.482;2023-07-20T07:21:11;2.60;;;1.10;;
46216;SDS011;47258;59.424;13.482;2023-07-20T07:23:38;1.63;;;1.00;;
46216;SDS011;47258;59.424;13.482;2023-07-20T07:26:05;0.93;;;0.50;;
46216;SDS011;47258;59.424;13.482;2023-07-20T07:28:33;0.30;;;0.30;;
46216;SDS011;47258;59.424;13.482;2023-07-20T07:31:01;0.20;;;0.20;;
46216;SDS011;47258;59.424;13.482;2023-07-20T07:33:32;0.47;;;0.47;;
46216;SDS011;47258;59.424;13.482;2023-07-20T07:36:00;1.80;;;1.52;;
46216;SDS011;47258;59.424;13.482;2023-07-20T07:38:27;2.58;;;1.38;;
46216;SDS011;47258;59.424;13.482;2023-07-20T07:40:55;0.70;;;0.70;;
46216;SDS011;47258;59.424;13.482;2023-07-20T07:43:22;0.40;;;0.38;;
46216;SDS011;47258;59.424;13.482;2023-07-20T07:45:49;0.30;;;0.30;;
46216;SDS011;47258;59.424;13.482;2023-07-20T07:48:17;0.47;;;0.47;;
46216;SDS011;47258;59.424;13.482;2023-07-20T07:50:47;2.28;;;0.40;;
46216;SDS011;47258;59.424;13.482;2023-07-20T07:53:15;1.00;;;0.40;;
46216;SDS011;47258;59.424;13.482;2023-07-20T07:55:43;0.57;;;0.40;;
46216;SDS011;47258;59.424;13.482;2023-07-20T07:58:10;1.13;;;0.35;;
46216;SDS011;47258;59.424;13.482;2023-07-20T08:00:38;1.05;;;0.52;;
46216;SDS011;47258;59.424;13.482;2023-07-20T08:03:06;0.50;;;0.50;;
46216;SDS011;47258;59.424;13.482;2023-07-20T08:05:33;1.30;;;0.40;;
46216;SDS011;47258;59.424;13.482;2023-07-20T08:08:02;1.27;;;0.60;;
46216;SDS011;47258;59.424;13.482;2023-07-20T08:10:29;0.63;;;0.63;;
46216;SDS011;47258;59.424;13.482;2023-07-20T08:12:57;1.95;;;0.40;;
46216;SDS011;47258;59.424;13.482;2023-07-20T08:15:24;0.73;;;0.40;;
46216;SDS011;47258;59.424;13.482;2023-07-20T08:17:51;5.38;;;0.47;;
46216;SDS011;47258;59.424;13.482;2023-07-20T08:20:19;0.38;;;0.30;;
46216;SDS011;47258;59.424;13.482;2023-07-20T08:22:51;0.30;;;0.30;;
46216;SDS011;47258;59.424;13.482;2023-07-20T08:25:20;2.38;;;0.50;;
46216;SDS011;47258;59.424;13.482;2023-07-20T08:27:48;0.40;;;0.40;;
46216;SDS011;47258;59.424;13.482;2023-07-20T08:30:15;0.70;;;0.70;;
46216;SDS011;47258;59.424;13.482;2023-07-20T08:32:42;0.65;;;0.57;;
46216;SDS011;47258;59.424;13.482;2023-07-20T08:35:10;0.40;;;0.40;;
46216;SDS011;47258;59.424;13.482;2023-07-20T08:37:37;0.95;;;0.20;;
46216;SDS011;47258;59.424;13.482;2023-07-20T08:40:05;0.30;;;0.30;;
46216;SDS011;47258;59.424;13.482;2023-07-20T08:45:03;1.25;;;0.30;;
46216;SDS011;47258;59.424;13.482;2023-07-20T08:47:33;0.20;;;0.20;;
46216;SDS011;47258;59.424;13.482;2023-07-20T08:50:01;1.60;;;0.40;;
46216;SDS011;47258;59.424;13.482;2023-07-20T08:52:32;0.30;;;0.30;;
46216;SDS011;47258;59.424;13.482;2023-07-20T08:55:00;0.47;;;0.47;;
46216;SDS011;47258;59.424;13.482;2023-07-20T08:57:29;1.40;;;0.45;;
46216;SDS011;47258;59.424;13.482;2023-07-20T08:59:58;0.55;;;0.20;;
46216;SDS011;47258;59.424;13.482;2023-07-20T09:02:27;2.40;;;0.30;;
46216;SDS011;47258;59.424;13.482;2023-07-20T09:04:54;0.20;;;0.20;;
46216;SDS011;47258;59.424;13.482;2023-07-20T09:07:22;0.35;;;0.35;;
46216;SDS011;47258;59.424;13.482;2023-07-20T09:09:49;2.05;;;0.30;;
46216;SDS011;47258;59.424;13.482;2023-07-20T09:12:17;0.32;;;0.30;;
46216;SDS011;47258;59.424;13.482;2023-07-20T09:14:44;2.78;;;0.22;;
46216;SDS011;47258;59.424;13.482;2023-07-20T09:17:12;0.40;;;0.40;;
46216;SDS011;47258;59.424;13.482;2023-07-20T09:19:46;0.30;;;0.20;;
46216;SDS011;47258;59.424;13.482;2023-07-20T09:22:13;0.60;;;0.60;;
46216;SDS011;47258;59.424;13.482;2023-07-20T09:24:42;0.75;;;0.30;;
46216;SDS011;47258;59.424;13.482;2023-07-20T09:27:10;0.10;;;0.10;;
46216;SDS011;47258;59.424;13.482;2023-07-20T09:29:46;1.02;;;0.30;;
46216;SDS011;47258;59.424;13.482;2023-07-20T09:32:15;0.32;;;0.32;;
46216;SDS011;47258;59.424;13.482;2023-07-20T09:34:44;0.28;;;0.28;;
46216;SDS011;47258;59.424;13.482;2023-07-20T09:37:13;0.98;;;0.32;;
46216;SDS011;47258;59.424;13.482;2023-07-20T09:39:43;0.47;;;0.40;;
46216;SDS011;47258;59.424;13.482;2023-07-20T09:42:11;0.30;;;0.22;;
46216;SDS011;47258;59.424;13.482;2023-07-20T09:44:38;0.20;;;0.20;;
46216;SDS011;47258;59.424;13.482;2023-07-20T09:47:06;0.28;;;0.28;;
46216;SDS011;47258;59.424;13.482;2023-07-20T09:49:34;0.65;;;0.30;;
46216;SDS011;47258;59.424;13.482;2023-07-20T09:52:06;4.57;;;0.65;;
46216;SDS011;47258;59.424;13.482;2023-07-20T09:54:35;0.17;;;0.17;;
46216;SDS011;47258;59.424;13.482;2023-07-20T09:57:04;0.30;;;0.30;;
46216;SDS011;47258;59.424;13.482;2023-07-20T09:59:34;1.42;;;0.30;;
46216;SDS011;47258;59.424;13.482;2023-07-20T10:02:02;0.22;;;0.22;;
46216;SDS011;47258;59.424;13.482;2023-07-20T10:04:31;0.65;;;0.20;;
46216;SDS011;47258;59.424;13.482;2023-07-20T10:07:01;0.32;;;0.20;;
46216;SDS011;47258;59.424;13.482;2023-07-20T10:09:32;1.27;;;0.15;;
46216;SDS011;47258;59.424;13.482;2023-07-20T10:12:01;0.15;;;0.15;;
46216;SDS011;47258;59.424;13.482;2023-07-20T10:14:28;0.17;;;0.17;;
46216;SDS011;47258;59.424;13.482;2023-07-20T10:16:59;1.88;;;0.55;;
46216;SDS011;47258;59.424;13.482;2023-07-20T10:19:30;0.10;;;0.10;;
46216;SDS011;47258;59.424;13.482;2023-07-20T10:22:06;0.20;;;0.20;;
46216;SDS011;47258;59.424;13.482;2023-07-20T10:24:34;4.68;;;0.40;;
46216;SDS011;47258;59.424;13.482;2023-07-20T10:27:04;0.30;;;0.15;;
46216;SDS011;47258;59.424;13.482;2023-07-20T10:29:31;0.20;;;0.20;;
46216;SDS011;47258;59.424;13.482;2023-07-20T10:31:59;0.88;;;0.25;;
46216;SDS011;47258;59.424;13.482;2023-07-20T10:34:27;0.13;;;0.13;;
46216;SDS011;47258;59.424;13.482;2023-07-20T10:36:55;0.20;;;0.20;;
46216;SDS011;47258;59.424;13.482;2023-07-20T10:39:22;0.43;;;0.43;;
46216;SDS011;47258;59.424;13.482;2023-07-20T10:41:59;0.10;;;0.10;;
46216;SDS011;47258;59.424;13.482;2023-07-20T10:44:28;0.30;;;0.28;;
46216;SDS011;47258;59.424;13.482;2023-07-20T10:46:59;0.30;;;0.30;;
46216;SDS011;47258;59.424;13.482;2023-07-20T10:49:26;0.10;;;0.10;;
46216;SDS011;47258;59.424;13.482;2023-07-20T10:51:57;0.52;;;0.40;;
46216;SDS011;47258;59.424;13.482;2023-07-20T11:00:10;0.30;;;0.13;;
46216;SDS011;47258;59.424;13.482;2023-07-20T11:02:44;0.25;;;0.25;;
46216;SDS011;47258;59.424;13.482;2023-07-20T11:07:57;0.20;;;0.20;;
46216;SDS011;47258;59.424;13.482;2023-07-20T11:10:25;0.20;;;0.20;;
46216;SDS011;47258;59.424;13.482;2023-07-20T11:15:46;0.30;;;0.20;;
46216;SDS011;47258;59.424;13.482;2023-07-20T11:18:14;0.15;;;0.15;;
46216;SDS011;47258;59.424;13.482;2023-07-20T11:20:41;2.05;;;0.55;;
46216;SDS011;47258;59.424;13.482;2023-07-20T11:23:09;0.10;;;0.10;;
46216;SDS011;47258;59.424;13.482;2023-07-20T11:25:37;0.45;;;0.30;;
46216;SDS011;47258;59.424;13.482;2023-07-20T11:28:06;0.40;;;0.30;;
46216;SDS011;47258;59.424;13.482;2023-07-20T11:30:35;0.65;;;0.20;;
46216;SDS011;47258;59.424;13.482;2023-07-20T11:33:03;0.32;;;0.30;;
46216;SDS011;47258;59.424;13.482;2023-07-20T11:35:31;0.88;;;0.35;;
46216;SDS011;47258;59.424;13.482;2023-07-20T11:38:02;0.70;;;0.17;;
46216;SDS011;47258;59.424;13.482;2023-07-20T11:40:32;0.43;;;0.30;;
46216;SDS011;47258;59.424;13.482;2023-07-20T11:42:59;0.55;;;0.20;;
46216;SDS011;47258;59.424;13.482;2023-07-20T11:45:27;0.40;;;0.20;;
46216;SDS011;47258;59.424;13.482;2023-07-20T11:47:58;2.42;;;0.35;;
46216;SDS011;47258;59.424;13.482;2023-07-20T11:50:27;1.23;;;0.40;;
46216;SDS011;47258;59.424;13.482;2023-07-20T11:52:55;0.20;;;0.20;;
46216;SDS011;47258;59.424;13.482;2023-07-20T11:55:22;1.02;;;0.30;;
46216;SDS011;47258;59.424;13.482;2023-07-20T11:58:03;0.20;;;0.20;;
46216;SDS011;47258;59.424;13.482;2023-07-20T12:00:30;1.40;;;0.30;;
46216;SDS011;47258;59.424;13.482;2023-07-20T12:02:58;0.32;;;0.17;;
46216;SDS011;47258;59.424;13.482;2023-07-20T12:05:25;0.30;;;0.30;;
46216;SDS011;47258;59.424;13.482;2023-07-20T12:07:54;0.20;;;0.20;;
46216;SDS011;47258;59.424;13.482;2023-07-20T12:10:25;0.30;;;0.30;;
46216;SDS011;47258;59.424;13.482;2023-07-20T12:12:53;0.10;;;0.10;;
46216;SDS011;47258;59.424;13.482;2023-07-20T12:15:21;0.30;;;0.30;;
46216;SDS011;47258;59.424;13.482;2023-07-20T12:17:49;0.35;;;0.35;;
46216;SDS011;47258;59.424;13.482;2023-07-20T12:20:24;0.10;;;0.10;;
46216;SDS011;47258;59.424;13.482;2023-07-20T12:22:52;0.10;;;0.10;;
46216;SDS011;47258;59.424;13.482;2023-07-20T12:25:21;0.10;;;0.10;;
46216;SDS011;47258;59.424;13.482;2023-07-20T12:27:48;2.75;;;0.52;;
46216;SDS011;47258;59.424;13.482;2023-07-20T12:30:15;0.10;;;0.10;;
46216;SDS011;47258;59.424;13.482;2023-07-20T12:32:43;0.10;;;0.10;;
46216;SDS011;47258;59.424;13.482;2023-07-20T12:35:10;0.05;;;0.05;;
46216;SDS011;47258;59.424;13.482;2023-07-20T12:37:39;0.90;;;0.68;;
46216;SDS011;47258;59.424;13.482;2023-07-20T12:40:07;0.08;;;0.08;;
46216;SDS011;47258;59.424;13.482;2023-07-20T12:42:37;0.88;;;0.40;;
46216;SDS011;47258;59.424;13.482;2023-07-20T12:45:05;0.28;;;0.28;;
46216;SDS011;47258;59.424;13.482;2023-07-20T12:47:33;0.10;;;0.10;;
46216;SDS011;47258;59.424;13.482;2023-07-20T12:50:00;0.10;;;0.10;;
46216;SDS011;47258;59.424;13.482;2023-07-20T12:52:29;0.10;;;0.10;;
46216;SDS011;47258;59.424;13.482;2023-07-20T12:54:56;1.13;;;0.45;;
46216;SDS011;47258;59.424;13.482;2023-07-20T12:57:24;1.77;;;0.43;;
46216;SDS011;47258;59.424;13.482;2023-07-20T12:59:52;0.32;;;0.20;;
46216;SDS011;47258;59.424;13.482;2023-07-20T13:02:20;0.70;;;0.20;;
46216;SDS011;47258;59.424;13.482;2023-07-20T13:04:47;0.80;;;0.20;;
46216;SDS011;47258;59.424;13.482;2023-07-20T13:07:14;0.35;;;0.32;;
46216;SDS011;47258;59.424;13.482;2023-07-20T13:09:42;0.30;;;0.30;;
46216;SDS011;47258;59.424;13.482;2023-07-20T13:12:09;0.20;;;0.20;;
46216;SDS011;47258;59.424;13.482;2023-07-20T13:14:36;0.20;;;0.20;;
46216;SDS011;47258;59.424;13.482;2023-07-20T13:17:05;0.35;;;0.35;;
46216;SDS011;47258;59.424;13.482;2023-07-20T13:22:00;0.15;;;0.15;;
46216;SDS011;47258;59.424;13.482;2023-07-20T13:24:28;2.35;;;0.32;;
46216;SDS011;47258;59.424;13.482;2023-07-20T13:26:55;5.50;;;0.40;;
46216;SDS011;47258;59.424;13.482;2023-07-20T13:29:23;0.32;;;0.32;;
46216;SDS011;47258;59.424;13.482;2023-07-20T13:31:51;0.30;;;0.30;;
46216;SDS011;47258;59.424;13.482;2023-07-20T13:34:19;0.45;;;0.45;;
46216;SDS011;47258;59.424;13.482;2023-07-20T13:36:47;0.20;;;0.20;;
46216;SDS011;47258;59.424;13.482;2023-07-20T13:39:14;0.13;;;0.13;;
46216;SDS011;47258;59.424;13.482;2023-07-20T13:41:42;0.15;;;0.15;;
46216;SDS011;47258;59.424;13.482;2023-07-20T13:44:09;0.13;;;0.13;;
46216;SDS011;47258;59.424;13.482;2023-07-20T13:46:36;1.50;;;0.30;;
46216;SDS011;47258;59.424;13.482;2023-07-20T13:49:04;0.40;;;0.40;;
46216;SDS011;47258;59.424;13.482;2023-07-20T13:51:33;2.40;;;0.55;;
46216;SDS011;47258;59.424;13.482;2023-07-20T13:54:00;0.47;;;0.20;;
46216;SDS011;47258;59.424;13.482;2023-07-20T13:56:27;0.45;;;0.40;;
46216;SDS011;47258;59.424;13.482;2023-07-20T13:58:55;0.60;;;0.45;;
46216;SDS011;47258;59.424;13.482;2023-07-20T14:01:22;0.30;;;0.30;;
46216;SDS011;47258;59.424;13.482;2023-07-20T14:03:53;0.50;;;0.50;;
46216;SDS011;47258;59.424;13.482;2023-07-20T14:06:20;0.50;;;0.50;;
46216;SDS011;47258;59.424;13.482;2023-07-20T14:08:49;0.55;;;0.55;;
46216;SDS011;47258;59.424;13.482;2023-07-20T14:11:18;0.47;;;0.47;;
46216;SDS011;47258;59.424;13.482;2023-07-20T14:13:45;0.25;;;0.25;;
46216;SDS011;47258;59.424;13.482;2023-07-20T14:16:12;0.20;;;0.20;;
46216;SDS011;47258;59.424;13.482;2023-07-20T14:18:40;0.10;;;0.10;;
46216;SDS011;47258;59.424;13.482;2023-07-20T14:21:07;0.13;;;0.13;;
46216;SDS011;47258;59.424;13.482;2023-07-20T14:23:35;0.38;;;0.22;;
46216;SDS011;47258;59.424;13.482;2023-07-20T14:26:03;0.25;;;0.25;;
46216;SDS011;47258;59.424;13.482;2023-07-20T14:28:32;1.13;;;0.10;;
46216;SDS011;47258;59.424;13.482;2023-07-20T14:30:59;0.10;;;0.10;;
46216;SDS011;47258;59.424;13.482;2023-07-20T14:33:27;0.63;;;0.10;;
46216;SDS011;47258;59.424;13.482;2023-07-20T14:35:54;0.05;;;0.05;;
46216;SDS011;47258;59.424;13.482;2023-07-20T14:38:21;0.63;;;0.63;;
46216;SDS011;47258;59.424;13.482;2023-07-20T14:40:49;0.10;;;0.10;;
46216;SDS011;47258;59.424;13.482;2023-07-20T14:43:18;0.10;;;0.10;;
46216;SDS011;47258;59.424;13.482;2023-07-20T14:45:45;8.23;;;0.20;;
46216;SDS011;47258;59.424;13.482;2023-07-20T14:48:12;0.10;;;0.10;;
46216;SDS011;47258;59.424;13.482;2023-07-20T14:50:39;0.45;;;0.45;;
46216;SDS011;47258;59.424;13.482;2023-07-20T14:53:07;0.30;;;0.10;;
46216;SDS011;47258;59.424;13.482;2023-07-20T14:55:34;0.70;;;0.20;;
46216;SDS011;47258;59.424;13.482;2023-07-20T14:58:02;0.30;;;0.10;;